Time;durP1;ratioP1;P1;durP2;ratioP2;P2;SDS_P1;SDS_P2;PMS_P1;PMS_P2;Temp;Humidity;BMP_temperature;BMP_pressure;BME280_temperature;BME280_humidity;BME280_pressure;Samples;Min_cycle;Max_cycle;Signal;HPM_P1;HPM_P2
2023/09/02 00:00:08;;;;;;;9.05;4.80;;;16.10;99.90;;;;;;5037101;28;20048;-55
2023/09/02 00:02:42;;;;;;;8.77;4.68;;;16.20;99.90;;;;;;5037223;28;20026;-50
2023/09/02 00:05:07;;;;;;;7.72;4.47;;;16.10;99.90;;;;;;5019826;28;20026;-54
2023/09/02 00:07:33;;;;;;;9.80;4.80;;;16.20;99.90;;;;;;5019386;28;20025;-52
2023/09/02 00:09:59;;;;;;;8.98;4.55;;;16.20;99.90;;;;;;5019731;28;20037;-53
2023/09/02 00:12:24;;;;;;;8.00;4.05;;;16.30;99.90;;;;;;5036431;28;20040;-53
2023/09/02 00:14:50;;;;;;;8.55;4.32;;;16.30;99.90;;;;;;5036717;28;20168;-54
2023/09/02 00:17:15;;;;;;;10.05;4.75;;;16.20;99.90;;;;;;5037331;28;20032;-53
2023/09/02 00:19:43;;;;;;;15.05;4.35;;;16.30;99.90;;;;;;5036727;28;20374;-53
2023/09/02 00:22:08;;;;;;;8.23;4.82;;;16.40;99.90;;;;;;5037331;28;20036;-51
2023/09/02 00:24:34;;;;;;;7.40;4.10;;;16.40;99.90;;;;;;5037568;28;20482;-51
2023/09/02 00:27:00;;;;;;;7.47;4.18;;;16.30;99.90;;;;;;5036781;28;20037;-53
2023/09/02 00:29:25;;;;;;;7.13;3.97;;;16.30;99.90;;;;;;5036689;28;20033;-53
2023/09/02 00:31:51;;;;;;;7.93;3.70;;;16.40;99.90;;;;;;5036379;28;20033;-51
2023/09/02 00:34:16;;;;;;;7.22;3.90;;;16.50;99.90;;;;;;5037051;28;20089;-52
2023/09/02 00:36:42;;;;;;;7.60;3.80;;;16.50;99.90;;;;;;5019212;28;20551;-51
2023/09/02 00:39:08;;;;;;;6.78;3.83;;;16.40;99.90;;;;;;5019093;28;20060;-53
2023/09/02 00:41:47;;;;;;;6.25;3.35;;;16.40;99.90;;;;;;5017883;28;20045;-53
2023/09/02 00:44:12;;;;;;;7.18;3.67;;;16.50;99.90;;;;;;5016126;28;20041;-52
2023/09/02 00:46:38;;;;;;;6.82;3.78;;;16.50;99.90;;;;;;5018145;28;20041;-55
2023/09/02 00:49:04;;;;;;;6.85;3.33;;;16.60;99.90;;;;;;5018194;28;20105;-56
2023/09/02 00:51:30;;;;;;;7.65;3.80;;;16.50;99.90;;;;;;5017751;28;20167;-53
2023/09/02 00:53:55;;;;;;;6.35;3.60;;;16.60;99.90;;;;;;5017784;28;20075;-55
2023/09/02 00:56:23;;;;;;;6.35;3.38;;;16.50;99.90;;;;;;5018321;28;20030;-54
2023/09/02 00:58:49;;;;;;;6.30;3.35;;;16.50;99.90;;;;;;5034205;28;20068;-56
2023/09/02 01:01:15;;;;;;;6.00;3.38;;;16.40;99.90;;;;;;5018838;28;20033;-54
2023/09/02 01:03:42;;;;;;;7.50;3.85;;;16.40;99.90;;;;;;5018427;28;20397;-55
2023/09/02 01:06:09;;;;;;;6.60;3.20;;;16.40;99.90;;;;;;5034250;28;20120;-56
2023/09/02 01:08:37;;;;;;;7.65;3.80;;;16.40;99.90;;;;;;5017778;28;20036;-55
2023/09/02 01:11:03;;;;;;;8.90;3.85;;;16.40;99.90;;;;;;5035341;28;20406;-55
2023/09/02 01:13:30;;;;;;;6.63;3.35;;;16.50;99.90;;;;;;5035614;28;20040;-55
2023/09/02 01:15:56;;;;;;;6.43;3.38;;;16.50;99.90;;;;;;5035866;28;20042;-55
2023/09/02 01:18:23;;;;;;;6.22;3.42;;;16.50;99.90;;;;;;5035407;28;20029;-55
2023/09/02 01:21:26;;;;;;;7.38;3.17;;;16.50;99.90;;;;;;5035964;28;20018;-55
2023/09/02 01:24:13;;;;;;;6.18;3.53;;;16.60;99.90;;;;;;5018129;28;20052;-56
2023/09/02 01:27:24;;;;;;;6.68;3.55;;;16.50;99.90;;;;;;5018187;28;20034;-55
2023/09/02 01:30:04;;;;;;;4.57;3.25;;;16.60;99.90;;;;;;5017736;28;20047;-55
2023/09/02 01:32:34;;;;;;;5.63;3.40;;;16.60;99.90;;;;;;5017404;28;20064;-55
2023/09/02 01:35:06;;;;;;;6.75;3.20;;;16.70;99.90;;;;;;5033714;28;20033;-54
2023/09/02 01:37:34;;;;;;;7.07;3.70;;;16.60;99.90;;;;;;5034487;28;20083;-52
2023/09/02 01:39:59;;;;;;;6.18;3.55;;;16.50;99.90;;;;;;5033687;28;20052;-52
2023/09/02 01:42:26;;;;;;;6.45;3.30;;;16.70;99.90;;;;;;5017886;28;20478;-52
2023/09/02 01:44:52;;;;;;;6.65;3.35;;;16.60;99.90;;;;;;5035384;28;20434;-54
2023/09/02 01:47:18;;;;;;;5.18;3.05;;;16.60;99.90;;;;;;5016930;28;20411;-53
2023/09/02 01:49:47;;;;;;;5.32;2.83;;;16.60;99.90;;;;;;5034698;28;20029;-54
2023/09/02 01:52:14;;;;;;;5.00;3.10;;;16.50;99.90;;;;;;5042626;28;20238;-53
2023/09/02 01:54:40;;;;;;;6.50;3.67;;;16.50;99.90;;;;;;5038420;28;20041;-50
2023/09/02 01:57:06;;;;;;;7.55;3.55;;;16.50;99.90;;;;;;5019419;28;20112;-50
2023/09/02 01:59:32;;;;;;;5.30;3.28;;;16.50;99.90;;;;;;5018635;28;20057;-50
2023/09/02 02:01:59;;;;;;;7.22;3.53;;;16.50;99.90;;;;;;5018691;28;20444;-50
2023/09/02 02:04:37;;;;;;;5.53;3.10;;;16.50;99.90;;;;;;5035736;28;20228;-54
2023/09/02 02:07:11;;;;;;;6.70;3.08;;;16.40;99.90;;;;;;5036869;28;20022;-50
2023/09/02 02:09:59;;;;;;;4.53;3.00;;;16.40;99.90;;;;;;5035546;28;20040;-53
2023/09/02 02:12:26;;;;;;;5.05;2.65;;;16.40;99.90;;;;;;5018919;28;20056;-50
2023/09/02 02:14:51;;;;;;;5.32;2.85;;;16.40;99.90;;;;;;5019336;28;20474;-50
2023/09/02 02:17:17;;;;;;;7.30;3.13;;;16.40;99.90;;;;;;5036744;28;20029;-50
2023/09/02 02:19:44;;;;;;;6.53;2.70;;;16.40;99.90;;;;;;5018883;28;20038;-52
2023/09/02 02:22:10;;;;;;;7.22;2.92;;;16.40;99.90;;;;;;5018489;28;20065;-53
2023/09/02 02:24:36;;;;;;;4.60;2.67;;;16.50;99.90;;;;;;5035732;28;20097;-52
2023/09/02 02:27:02;;;;;;;4.95;2.78;;;16.40;99.90;;;;;;5036428;28;20064;-50
2023/09/02 02:29:28;;;;;;;5.13;2.92;;;16.40;99.90;;;;;;5035575;28;20042;-51
2023/09/02 02:31:54;;;;;;;5.90;2.65;;;16.40;99.90;;;;;;5018612;28;20037;-50
2023/09/02 02:34:19;;;;;;;4.88;2.83;;;16.30;99.90;;;;;;5036106;28;20120;-50
2023/09/02 02:36:45;;;;;;;4.60;2.67;;;16.30;99.90;;;;;;5019590;28;20043;-51
2023/09/02 02:39:10;;;;;;;4.22;2.40;;;16.30;99.90;;;;;;5022341;28;20033;-52
2023/09/02 02:41:36;;;;;;;6.25;3.00;;;16.40;99.90;;;;;;5022400;28;20041;-51
2023/09/02 02:44:02;;;;;;;5.32;2.90;;;16.40;99.90;;;;;;5039840;28;20108;-51
2023/09/02 02:46:28;;;;;;;5.07;2.63;;;16.30;99.90;;;;;;5038340;28;20041;-53
2023/09/02 02:48:54;;;;;;;6.03;3.13;;;16.30;99.90;;;;;;5021399;28;20385;-51
2023/09/02 02:51:19;;;;;;;5.20;2.47;;;16.30;99.90;;;;;;5021576;28;20120;-51
2023/09/02 02:53:46;;;;;;;4.35;2.53;;;16.30;99.90;;;;;;5021610;28;20029;-53
2023/09/02 02:56:12;;;;;;;4.00;2.45;;;16.30;99.90;;;;;;5021951;28;20244;-52
2023/09/02 02:58:38;;;;;;;5.40;2.90;;;16.20;99.90;;;;;;5021769;28;20030;-52
2023/09/02 03:01:09;;;;;;;4.05;2.38;;;16.30;99.90;;;;;;5021199;28;20040;-51
2023/09/02 03:03:35;;;;;;;4.28;2.50;;;16.30;99.90;;;;;;5037428;28;20048;-53
2023/09/02 03:06:03;;;;;;;4.25;2.42;;;16.30;99.90;;;;;;5021494;28;20033;-54
2023/09/02 03:08:29;;;;;;;4.30;2.63;;;16.20;99.90;;;;;;5039829;28;20037;-52
2023/09/02 03:10:57;;;;;;;5.15;2.50;;;16.10;99.90;;;;;;5021404;28;20037;-51
2023/09/02 03:13:24;;;;;;;4.55;2.67;;;16.20;99.90;;;;;;5022005;28;20128;-51
2023/09/02 03:15:54;;;;;;;4.90;2.78;;;16.10;99.90;;;;;;5021122;28;20037;-50
2023/09/02 03:18:20;;;;;;;4.93;2.78;;;16.20;99.90;;;;;;5021978;28;20043;-53
2023/09/02 03:20:46;;;;;;;4.60;2.50;;;16.10;99.90;;;;;;5039120;28;20036;-50
2023/09/02 03:23:12;;;;;;;4.00;2.50;;;16.20;99.90;;;;;;5021081;28;20503;-55
2023/09/02 03:25:38;;;;;;;5.57;2.75;;;16.20;99.90;;;;;;5020744;28;20026;-51
2023/09/02 03:28:06;;;;;;;5.90;2.50;;;16.20;99.90;;;;;;5021590;28;20029;-52
2023/09/02 03:30:32;;;;;;;3.88;2.42;;;16.10;99.90;;;;;;5020881;28;20132;-51
2023/09/02 03:32:59;;;;;;;5.47;2.25;;;16.10;99.90;;;;;;5037164;28;20037;-52
2023/09/02 03:35:25;;;;;;;3.65;2.05;;;16.20;99.90;;;;;;5037433;28;20039;-52
2023/09/02 03:37:51;;;;;;;5.20;2.25;;;16.20;99.90;;;;;;5039295;28;20398;-51
2023/09/02 03:40:17;;;;;;;4.70;2.35;;;16.10;99.90;;;;;;5020564;28;20465;-54
2023/09/02 03:42:44;;;;;;;6.18;3.00;;;16.10;99.90;;;;;;5020431;28;20112;-52
2023/09/02 03:45:09;;;;;;;5.32;2.75;;;16.10;99.90;;;;;;5020655;28;20536;-53
2023/09/02 03:47:36;;;;;;;5.60;2.28;;;16.10;99.90;;;;;;5019807;28;20021;-53
2023/09/02 03:50:05;;;;;;;3.83;2.25;;;16.10;99.90;;;;;;5037086;28;20025;-55
2023/09/02 03:52:31;;;;;;;6.50;2.42;;;16.10;99.90;;;;;;5020416;28;20060;-50
2023/09/02 03:54:58;;;;;;;5.10;2.80;;;16.10;99.90;;;;;;5037338;28;20029;-52
2023/09/02 03:57:24;;;;;;;6.05;2.22;;;16.00;99.90;;;;;;5020231;28;20097;-53
2023/09/02 03:59:50;;;;;;;6.47;2.95;;;16.00;99.90;;;;;;5036919;28;20478;-52
2023/09/02 04:02:16;;;;;;;4.45;2.20;;;16.10;99.90;;;;;;5020141;28;20029;-54
2023/09/02 04:04:42;;;;;;;3.47;2.10;;;16.10;99.90;;;;;;5020491;28;20498;-54
2023/09/02 04:07:07;;;;;;;5.63;2.30;;;16.10;99.90;;;;;;5020403;28;20471;-50
2023/09/02 04:09:34;;;;;;;5.50;2.60;;;16.10;99.90;;;;;;5037925;28;20033;-53
2023/09/02 04:12:00;;;;;;;6.13;2.55;;;16.10;99.90;;;;;;5019795;28;20061;-53
2023/09/02 04:14:26;;;;;;;4.72;1.95;;;16.10;99.90;;;;;;5036822;28;20033;-54
2023/09/02 04:16:53;;;;;;;3.58;2.05;;;16.10;99.90;;;;;;5036859;28;20037;-54
2023/09/02 04:19:20;;;;;;;5.13;2.43;;;16.10;99.90;;;;;;5037302;28;20143;-54
2023/09/02 04:21:47;;;;;;;4.90;2.20;;;16.10;99.90;;;;;;5020431;28;20439;-52
2023/09/02 04:24:13;;;;;;;4.25;1.98;;;16.10;99.90;;;;;;5019879;28;20036;-52
2023/09/02 04:26:39;;;;;;;3.42;1.98;;;16.10;99.90;;;;;;5037681;28;20022;-51
2023/09/02 04:29:05;;;;;;;3.42;2.08;;;16.20;99.90;;;;;;5019740;28;20395;-51
2023/09/02 04:31:30;;;;;;;2.88;1.90;;;16.20;99.90;;;;;;5003059;28;20056;-55
2023/09/02 04:33:57;;;;;;;4.22;2.40;;;16.20;99.90;;;;;;5018217;28;20038;-53
2023/09/02 04:36:23;;;;;;;4.10;1.95;;;16.10;99.90;;;;;;5035150;28;20033;-55
2023/09/02 04:38:51;;;;;;;3.75;2.15;;;16.20;99.90;;;;;;5018132;28;20029;-54
2023/09/02 04:41:17;;;;;;;3.13;1.50;;;16.20;99.90;;;;;;5018224;28;20025;-54
2023/09/02 04:43:45;;;;;;;2.42;1.60;;;16.20;99.90;;;;;;5018719;28;20049;-53
2023/09/02 04:46:12;;;;;;;3.13;2.05;;;16.20;99.90;;;;;;5019565;28;20040;-54
2023/09/02 04:48:42;;;;;;;3.63;1.97;;;16.20;99.90;;;;;;5018558;28;20033;-54
2023/09/02 04:51:08;;;;;;;3.25;1.92;;;16.10;99.90;;;;;;5019435;28;20486;-50
2023/09/02 04:53:36;;;;;;;3.20;1.65;;;16.10;99.90;;;;;;5018614;28;20053;-52
2023/09/02 04:56:04;;;;;;;2.35;1.40;;;16.20;99.90;;;;;;5036326;28;20033;-55
2023/09/02 04:58:31;;;;;;;3.20;1.70;;;16.10;99.90;;;;;;5018631;28;20247;-51
2023/09/02 05:01:10;;;;;;;3.40;1.80;;;16.00;99.90;;;;;;5018503;28;20083;-54
2023/09/02 05:03:38;;;;;;;3.35;1.75;;;16.10;99.90;;;;;;5035021;28;20449;-54
2023/09/02 05:06:05;;;;;;;4.57;1.67;;;16.10;99.90;;;;;;5035047;28;20422;-52
2023/09/02 05:08:34;;;;;;;3.43;1.80;;;16.10;99.90;;;;;;5035113;28;20052;-53
2023/09/02 05:11:00;;;;;;;6.38;2.30;;;16.10;99.90;;;;;;5018968;28;20414;-53
2023/09/02 05:13:26;;;;;;;3.72;2.00;;;16.10;99.90;;;;;;5034976;28;20041;-51
2023/09/02 05:15:52;;;;;;;2.92;1.70;;;16.20;99.90;;;;;;5036185;28;20031;-54
2023/09/02 05:18:18;;;;;;;4.43;2.30;;;16.20;99.90;;;;;;5017458;28;20088;-53
2023/09/02 05:20:44;;;;;;;3.55;1.90;;;16.10;99.90;;;;;;5017913;28;20045;-54
2023/09/02 05:23:12;;;;;;;4.00;2.13;;;16.20;99.90;;;;;;5016964;28;20040;-55
2023/09/02 05:25:38;;;;;;;3.03;1.73;;;16.20;99.90;;;;;;5035670;28;20713;-53
2023/09/02 05:28:05;;;;;;;2.45;1.60;;;16.20;99.90;;;;;;5017713;28;20030;-52
2023/09/02 05:30:35;;;;;;;4.30;2.13;;;16.10;99.90;;;;;;5033944;28;20065;-51
2023/09/02 05:33:00;;;;;;;2.83;1.45;;;16.10;99.90;;;;;;5035273;28;20560;-54
2023/09/02 05:35:26;;;;;;;3.72;2.20;;;16.10;99.90;;;;;;5017346;28;20037;-56
2023/09/02 05:37:52;;;;;;;10.45;5.35;;;16.10;99.90;;;;;;5035304;28;20445;-51
2023/09/02 05:40:17;;;;;;;4.13;2.42;;;16.10;99.90;;;;;;5035115;28;20022;-53
2023/09/02 05:42:43;;;;;;;3.55;1.95;;;16.30;99.90;;;;;;5034502;28;20045;-56
2023/09/02 05:45:09;;;;;;;5.20;2.33;;;16.40;99.90;;;;;;5034781;28;20057;-56
2023/09/02 05:47:34;;;;;;;5.85;3.05;;;16.40;99.90;;;;;;5034375;28;20184;-56
2023/09/02 05:50:00;;;;;;;5.95;2.00;;;16.40;99.90;;;;;;5034336;28;20037;-55
2023/09/02 05:52:26;;;;;;;6.28;2.67;;;16.40;99.90;;;;;;5035281;28;20108;-52
2023/09/02 05:54:52;;;;;;;3.05;1.60;;;16.30;99.90;;;;;;5035158;28;20049;-54
2023/09/02 05:57:17;;;;;;;4.20;2.17;;;16.30;99.90;;;;;;5035391;28;20030;-55
2023/09/02 05:59:46;;;;;;;2.80;1.60;;;16.20;99.90;;;;;;5017418;28;20037;-56
2023/09/02 06:02:12;;;;;;;2.83;1.75;;;16.30;99.90;;;;;;5017620;28;20045;-54
2023/09/02 06:04:38;;;;;;;4.07;1.80;;;16.30;99.90;;;;;;5035085;28;20017;-55
2023/09/02 06:07:03;;;;;;;4.93;1.73;;;16.40;99.90;;;;;;5034948;28;20034;-55
2023/09/02 06:09:30;;;;;;;1.92;1.42;;;16.50;99.90;;;;;;5035685;28;20087;-54
2023/09/02 06:11:55;;;;;;;2.72;1.58;;;16.50;99.90;;;;;;5038552;28;20037;-53
2023/09/02 06:14:21;;;;;;;2.50;1.33;;;16.60;99.90;;;;;;5039477;28;20067;-52
2023/09/02 06:16:47;;;;;;;3.75;1.50;;;16.60;99.90;;;;;;5039037;28;20030;-53
2023/09/02 06:19:12;;;;;;;3.28;1.52;;;16.70;99.90;;;;;;5039097;28;20982;-54
2023/09/02 06:21:38;;;;;;;2.10;1.40;;;16.70;99.90;;;;;;5039136;28;20082;-55
2023/09/02 06:24:05;;;;;;;2.63;1.50;;;16.70;99.90;;;;;;5039617;28;20117;-52
2023/09/02 06:26:31;;;;;;;3.03;1.60;;;16.80;99.90;;;;;;5039319;28;20393;-53
2023/09/02 06:28:57;;;;;;;3.20;1.70;;;16.90;99.90;;;;;;5039153;28;20030;-54
2023/09/02 06:31:23;;;;;;;4.00;1.80;;;16.90;99.90;;;;;;5038999;28;20057;-55
2023/09/02 06:33:49;;;;;;;2.13;1.38;;;16.90;99.90;;;;;;5038344;28;20403;-53
2023/09/02 06:36:19;;;;;;;2.35;1.38;;;16.90;99.90;;;;;;5039176;28;20112;-53
2023/09/02 06:38:46;;;;;;;2.67;1.30;;;16.90;99.90;;;;;;5038594;28;20034;-54
2023/09/02 06:41:14;;;;;;;4.00;1.70;;;17.00;99.90;;;;;;5038461;28;20037;-54
2023/09/02 06:43:40;;;;;;;2.58;1.63;;;17.00;99.90;;;;;;5020220;28;20141;-51
2023/09/02 06:46:19;;;;;;;3.17;1.40;;;17.00;99.90;;;;;;5038593;28;20030;-54
2023/09/02 06:48:45;;;;;;;;;;;17.10;99.90;;;;;;5038992;28;20030;-55
2023/09/02 06:51:11;;;;;;;3.45;1.65;;;17.10;99.90;;;;;;5037816;28;19974;-53
2023/09/02 06:53:38;;;;;;;2.42;1.30;;;17.00;99.90;;;;;;5037824;28;20068;-53
2023/09/02 06:56:08;;;;;;;2.15;1.25;;;17.10;99.90;;;;;;5038666;28;20033;-53
2023/09/02 06:58:35;;;;;;;3.03;1.38;;;17.20;99.90;;;;;;5038429;28;20043;-55
2023/09/02 07:01:00;;;;;;;2.10;1.20;;;17.20;99.90;;;;;;5038178;28;20324;-55
2023/09/02 07:03:26;;;;;;;2.20;1.25;;;17.20;99.90;;;;;;5037852;28;20030;-53
2023/09/02 07:05:51;;;;;;;1.48;0.98;;;17.30;99.90;;;;;;5020564;28;20371;-53
2023/09/02 07:08:17;;;;;;;4.55;1.60;;;17.30;99.90;;;;;;5038342;28;20482;-55
2023/09/02 07:10:43;;;;;;;1.50;1.00;;;17.30;99.90;;;;;;5037827;28;20470;-54
2023/09/02 07:13:08;;;;;;;2.28;1.52;;;17.30;99.90;;;;;;5020402;28;20044;-55
2023/09/02 07:15:35;;;;;;;2.58;1.20;;;17.40;99.90;;;;;;5038023;28;20144;-55
2023/09/02 07:18:01;;;;;;;2.78;1.40;;;17.50;99.90;;;;;;5038364;28;20034;-55
2023/09/02 07:20:27;;;;;;;2.30;1.17;;;17.50;99.90;;;;;;5020274;28;20030;-55
2023/09/02 07:22:53;;;;;;;1.85;1.05;;;17.50;99.90;;;;;;5037729;28;20025;-53
2023/09/02 07:25:18;;;;;;;1.63;1.02;;;17.50;99.90;;;;;;5020582;28;20030;-55
2023/09/02 07:27:44;;;;;;;1.95;1.20;;;17.60;99.90;;;;;;5038427;28;20041;-55
2023/09/02 07:30:10;;;;;;;1.60;0.93;;;17.70;99.90;;;;;;5038568;28;20092;-55
2023/09/02 07:32:36;;;;;;;2.25;1.15;;;17.70;99.90;;;;;;5037797;28;20505;-51
2023/09/02 07:35:01;;;;;;;1.63;0.98;;;17.70;99.90;;;;;;5038253;28;20029;-53
2023/09/02 07:37:27;;;;;;;2.30;1.35;;;17.70;99.90;;;;;;5020140;28;20164;-53
2023/09/02 07:39:53;;;;;;;2.30;1.33;;;17.70;99.90;;;;;;5037706;28;20041;-54
2023/09/02 07:42:18;;;;;;;2.67;1.50;;;17.80;99.90;;;;;;5037352;28;20026;-52
2023/09/02 07:44:44;;;;;;;1.63;1.00;;;17.80;99.90;;;;;;5037521;28;20061;-54
2023/09/02 07:47:09;;;;;;;1.27;0.90;;;17.90;99.90;;;;;;5037179;28;20022;-55
2023/09/02 07:49:35;;;;;;;1.60;1.00;;;18.00;99.90;;;;;;5020043;28;20470;-51
2023/09/02 07:52:01;;;;;;;4.00;0.85;;;18.00;99.90;;;;;;5037673;28;20099;-54
2023/09/02 07:54:26;;;;;;;2.13;0.80;;;18.00;99.90;;;;;;5037477;28;20092;-53
2023/09/02 07:56:52;;;;;;;1.48;0.90;;;18.00;99.90;;;;;;5037750;28;20033;-52
2023/09/02 07:59:17;;;;;;;1.52;0.80;;;18.00;99.90;;;;;;5037371;28;20034;-53
2023/09/02 08:01:43;;;;;;;1.17;0.90;;;18.10;99.90;;;;;;5037806;28;20490;-55
2023/09/02 08:04:08;;;;;;;1.83;0.85;;;18.10;99.90;;;;;;5019813;28;20036;-53
2023/09/02 08:06:36;;;;;;;1.80;1.20;;;18.10;99.90;;;;;;5019054;28;20104;-55
2023/09/02 08:09:01;;;;;;;18.08;8.70;;;18.10;99.90;;;;;;5037135;28;20058;-52
2023/09/02 08:11:27;;;;;;;14.95;9.05;;;18.20;99.90;;;;;;5036738;28;20483;-51
2023/09/02 08:13:53;;;;;;;3.25;1.92;;;18.20;99.90;;;;;;5036742;28;20038;-53
2023/09/02 08:16:18;;;;;;;8.38;4.90;;;18.20;99.90;;;;;;5037014;28;20033;-53
2023/09/02 08:18:44;;;;;;;2.65;1.52;;;18.30;99.90;;;;;;5037196;28;20070;-51
2023/09/02 08:21:10;;;;;;;3.58;1.90;;;18.40;99.90;;;;;;5036894;28;20486;-53
2023/09/02 08:23:38;;;;;;;8.50;4.35;;;18.50;99.90;;;;;;5036491;28;20061;-54
2023/09/02 08:26:12;;;;;;;7.00;4.25;;;18.50;99.90;;;;;;5036573;28;20034;-55
2023/09/02 08:28:39;;;;;;;2.58;1.20;;;18.60;99.90;;;;;;5036625;28;20425;-54
2023/09/02 08:31:04;;;;;;;1.42;1.00;;;18.70;99.90;;;;;;5036460;28;20077;-53
2023/09/02 08:33:30;;;;;;;3.00;1.48;;;18.90;99.90;;;;;;5036510;28;20094;-53
2023/09/02 08:35:55;;;;;;;2.97;1.50;;;19.00;99.90;;;;;;5035988;28;20025;-54
2023/09/02 08:38:21;;;;;;;2.22;1.20;;;19.10;99.90;;;;;;5036435;28;20036;-55
2023/09/02 08:40:49;;;;;;;4.40;2.13;;;19.20;99.90;;;;;;5036884;28;20080;-55
2023/09/02 08:43:15;;;;;;;6.53;2.53;;;19.40;99.90;;;;;;5036406;28;20453;-54
2023/09/02 08:45:45;;;;;;;5.28;1.30;;;19.50;99.90;;;;;;5036688;28;20025;-52
2023/09/02 08:48:21;;;;;;;1.27;0.80;;;19.60;99.90;;;;;;5036719;28;20032;-55
2023/09/02 08:50:47;;;;;;;0.70;0.70;;;19.70;99.90;;;;;;5036182;28;20034;-52
2023/09/02 08:53:13;;;;;;;3.45;2.03;;;19.70;99.90;;;;;;5017903;28;20041;-55
2023/09/02 08:55:41;;;;;;;2.65;1.02;;;19.80;99.90;;;;;;5036037;28;20037;-53
2023/09/02 08:58:08;;;;;;;1.88;1.15;;;19.90;99.90;;;;;;5035847;28;20189;-55
2023/09/02 09:00:35;;;;;;;1.33;0.90;;;19.90;99.90;;;;;;5018169;28;20083;-51
2023/09/02 09:03:02;;;;;;;1.48;0.88;;;20.00;99.90;;;;;;5035256;28;20498;-53
2023/09/02 09:05:28;;;;;;;5.15;1.00;;;20.10;99.90;;;;;;5035434;28;20030;-54
2023/09/02 09:07:54;;;;;;;1.20;0.70;;;20.10;99.90;;;;;;5035828;28;20026;-55
2023/09/02 09:10:21;;;;;;;1.80;0.95;;;20.10;99.90;;;;;;5034997;28;20029;-53
2023/09/02 09:12:50;;;;;;;1.70;1.05;;;19.90;99.90;;;;;;5035259;28;20033;-55
2023/09/02 09:15:16;;;;;;;2.05;1.27;;;19.80;99.90;;;;;;5035552;28;20621;-54
2023/09/02 09:17:43;;;;;;;1.33;0.93;;;19.90;99.90;;;;;;5035526;28;20036;-55
2023/09/02 09:20:10;;;;;;;2.20;1.38;;;19.90;99.90;;;;;;5035228;28;20095;-54
2023/09/02 09:22:40;;;;;;;4.47;1.50;;;19.90;99.90;;;;;;5034567;28;20037;-55
2023/09/02 09:25:06;;;;;;;3.97;2.42;;;20.10;99.90;;;;;;5035631;28;20029;-54
2023/09/02 09:27:34;;;;;;;3.72;2.08;;;20.10;99.90;;;;;;5035188;28;20032;-55
2023/09/02 09:30:00;;;;;;;2.72;1.30;;;20.30;99.90;;;;;;5035113;28;20037;-55
2023/09/02 09:32:26;;;;;;;2.22;1.15;;;20.30;99.90;;;;;;5035068;28;20029;-56
2023/09/02 09:34:51;;;;;;;1.90;0.85;;;20.30;99.90;;;;;;5034826;28;20026;-53
2023/09/02 09:37:17;;;;;;;1.33;0.90;;;20.30;99.90;;;;;;5034708;28;20516;-52
2023/09/02 09:39:47;;;;;;;1.95;1.05;;;20.30;99.90;;;;;;5035395;28;20505;-53
2023/09/02 09:42:15;;;;;;;1.77;1.20;;;20.30;99.90;;;;;;5035465;28;20034;-55
2023/09/02 09:44:58;;;;;;;2.47;1.20;;;20.40;99.90;;;;;;5035932;28;20511;-54
2023/09/02 09:47:25;;;;;;;3.10;1.15;;;20.40;99.90;;;;;;5017074;28;20038;-54
2023/09/02 09:49:52;;;;;;;1.33;0.80;;;20.40;99.90;;;;;;5035040;28;20030;-51
2023/09/02 09:52:19;;;;;;;5.30;2.08;;;20.40;99.90;;;;;;5035261;28;20478;-52
2023/09/02 09:54:47;;;;;;;6.32;3.13;;;20.50;99.90;;;;;;5017886;28;20598;-53
2023/09/02 09:57:29;;;;;;;2.00;1.40;;;20.50;99.90;;;;;;5034866;28;20037;-54
2023/09/02 09:59:55;;;;;;;2.30;1.50;;;20.70;99.90;;;;;;5017517;28;20037;-53
2023/09/02 10:02:21;;;;;;;4.25;1.35;;;20.50;99.90;;;;;;5034870;28;20032;-54
2023/09/02 10:04:57;;;;;;;1.58;1.00;;;20.40;99.90;;;;;;5035280;28;20363;-53
2023/09/02 10:07:25;;;;;;;2.00;1.15;;;20.20;99.90;;;;;;5035002;28;20030;-54
2023/09/02 10:09:52;;;;;;;4.37;1.10;;;20.40;99.90;;;;;;5034687;28;20033;-53
2023/09/02 10:12:17;;;;;;;2.80;1.30;;;20.50;99.90;;;;;;5035944;28;20029;-53
2023/09/02 10:14:45;;;;;;;2.03;1.10;;;20.60;99.90;;;;;;5017174;28;20041;-51
2023/09/02 10:17:12;;;;;;;4.15;2.25;;;20.80;99.90;;;;;;5035173;28;20083;-54
2023/09/02 10:19:38;;;;;;;5.15;2.55;;;20.90;99.90;;;;;;5035216;28;20036;-53
2023/09/02 10:22:04;;;;;;;5.13;2.42;;;21.10;99.90;;;;;;5035241;28;20091;-51
2023/09/02 10:24:34;;;;;;;2.47;1.38;;;21.30;99.90;;;;;;5034951;28;20064;-52
2023/09/02 10:27:03;;;;;;;3.15;1.45;;;21.30;99.90;;;;;;5035683;28;20028;-53
2023/09/02 10:29:35;;;;;;;5.30;2.40;;;21.50;99.90;;;;;;5035174;28;20451;-55
2023/09/02 10:32:10;;;;;;;3.75;1.55;;;21.80;99.90;;;;;;5035464;28;20034;-51
2023/09/02 10:34:45;;;;;;;3.25;1.70;;;21.80;99.90;;;;;;5035693;28;20376;-54
2023/09/02 10:37:13;;;;;;;7.45;3.22;;;21.70;99.90;;;;;;5035072;28;20400;-52
2023/09/02 10:39:53;;;;;;;7.47;4.10;;;21.80;99.90;;;;;;5035529;28;20049;-53
2023/09/02 10:42:19;;;;;;;9.45;4.28;;;22.10;99.90;;;;;;5035317;28;20390;-53
2023/09/02 10:44:47;;;;;;;4.63;2.58;;;22.20;99.90;;;;;;5034489;28;20482;-54
2023/09/02 10:47:13;;;;;;;10.88;4.45;;;22.40;99.90;;;;;;5034900;28;20037;-51
2023/09/02 10:49:40;;;;;;;4.93;2.38;;;22.50;99.90;;;;;;5017329;28;20379;-53
2023/09/02 10:52:06;;;;;;;6.00;2.90;;;22.60;99.90;;;;;;5034592;28;20033;-54
2023/09/02 10:55:04;;;;;;;5.10;2.60;;;22.70;99.90;;;;;;5034914;28;20129;-52
2023/09/02 10:57:31;;;;;;;5.07;2.22;;;22.60;99.90;;;;;;5035851;28;20091;-55
2023/09/02 11:00:16;;;;;;;5.05;2.35;;;22.50;99.90;;;;;;5038529;28;20548;-52
2023/09/02 11:02:44;;;;;;;4.28;2.17;;;22.30;99.90;;;;;;5038469;28;20044;-51
2023/09/02 11:05:10;;;;;;;5.18;2.22;;;22.20;99.90;;;;;;5020927;28;20044;-52
2023/09/02 11:07:40;;;;;;;5.30;2.67;;;22.10;99.90;;;;;;5039096;28;20026;-53
2023/09/02 11:10:07;;;;;;;7.53;3.38;;;22.20;99.90;;;;;;5038147;28;20029;-52
2023/09/02 11:12:33;;;;;;;9.95;4.65;;;22.20;99.90;;;;;;5038434;28;20037;-50
2023/09/02 11:15:08;;;;;;;5.63;3.13;;;22.30;99.90;;;;;;5038605;28;20030;-54
2023/09/02 11:17:39;;;;;;;5.60;2.22;;;22.40;99.90;;;;;;5039089;28;20029;-52
2023/09/02 11:20:06;;;;;;;3.08;1.80;;;22.30;99.90;;;;;;5038147;28;20057;-55
2023/09/02 11:23:08;;;;;;;7.85;3.70;;;22.30;99.90;;;;;;5020516;28;20026;-53
2023/09/02 11:25:41;;;;;;;3.47;2.00;;;22.40;99.90;;;;;;5038309;28;20057;-53
2023/09/02 11:28:16;;;;;;;4.47;2.00;;;22.40;99.90;;;;;;5038302;28;20025;-52
2023/09/02 11:31:02;;;;;;;5.40;2.25;;;22.40;99.90;;;;;;5037615;28;20029;-51
2023/09/02 11:33:28;;;;;;;4.28;2.25;;;22.40;99.90;;;;;;5037998;28;20087;-54
2023/09/02 11:36:06;;;;;;;7.53;3.83;;;22.50;99.90;;;;;;5038465;28;20041;-52
2023/09/02 11:38:34;;;;;;;9.95;5.00;;;22.80;99.90;;;;;;5038475;28;20060;-52
2023/09/02 11:41:00;;;;;;;9.82;3.92;;;23.00;99.90;;;;;;5037677;28;20063;-54
2023/09/02 11:43:29;;;;;;;6.05;2.97;;;23.00;99.90;;;;;;5037787;28;20029;-51
2023/09/02 11:45:56;;;;;;;6.18;3.20;;;22.80;99.90;;;;;;5038727;28;20045;-51
2023/09/02 11:48:24;;;;;;;12.30;5.07;;;22.70;99.90;;;;;;5038244;28;20093;-53
2023/09/02 11:50:50;;;;;;;12.40;5.50;;;22.60;99.90;;;;;;5038387;28;20037;-55
2023/09/02 11:53:16;;;;;;;10.55;4.78;;;22.60;99.90;;;;;;5037927;28;20033;-53
2023/09/02 11:55:41;;;;;;;15.38;6.57;;;22.80;99.90;;;;;;5038475;28;20025;-52
2023/09/02 11:58:08;;;;;;;14.32;5.93;;;22.90;99.90;;;;;;5038123;28;20033;-52
2023/09/02 12:00:40;;;;;;;18.38;7.70;;;22.80;99.90;;;;;;5038129;28;20033;-53
2023/09/02 12:03:07;;;;;;;16.17;7.00;;;22.70;99.90;;;;;;5020454;28;20033;-53
2023/09/02 12:05:37;;;;;;;16.73;7.40;;;22.70;99.90;;;;;;5037454;28;20429;-52
2023/09/02 12:08:04;;;;;;;17.25;8.70;;;22.50;99.90;;;;;;5019880;28;20118;-54
2023/09/02 12:10:30;;;;;;;13.25;6.40;;;22.60;99.90;;;;;;5036523;28;20545;-53
2023/09/02 12:12:56;;;;;;;13.80;5.82;;;22.60;99.90;;;;;;5036069;28;20052;-55
2023/09/02 12:15:22;;;;;;;14.63;6.20;;;22.70;99.90;;;;;;5036592;28;20032;-55
2023/09/02 12:17:48;;;;;;;11.40;5.07;;;22.70;99.90;;;;;;5018714;28;20038;-55
2023/09/02 12:20:15;;;;;;;14.65;7.70;;;22.70;99.90;;;;;;5035990;28;20033;-54
2023/09/02 12:22:42;;;;;;;12.00;5.38;;;22.80;99.90;;;;;;5035291;28;20026;-55
2023/09/02 12:25:22;;;;;;;14.57;5.45;;;22.80;99.90;;;;;;5033183;28;20406;-55
2023/09/02 12:27:49;;;;;;;15.38;7.10;;;22.80;99.90;;;;;;5036731;28;20025;-55
2023/09/02 12:30:26;;;;;;;15.30;5.68;;;22.80;99.90;;;;;;5018295;28;20073;-53
2023/09/02 12:32:51;;;;;;;16.77;7.20;;;22.80;99.90;;;;;;5035968;28;20041;-53
2023/09/02 12:35:17;;;;;;;16.30;6.60;;;22.90;99.90;;;;;;5036707;28;20057;-55
2023/09/02 12:37:42;;;;;;;13.90;5.75;;;22.80;99.90;;;;;;5036457;28;20072;-52
2023/09/02 12:40:10;;;;;;;13.15;5.32;;;22.80;99.90;;;;;;5036170;28;20030;-53
2023/09/02 12:42:36;;;;;;;15.73;4.85;;;22.70;99.90;;;;;;5035746;28;20021;-52
2023/09/02 12:45:04;;;;;;;11.20;3.80;;;22.70;99.90;;;;;;5035678;28;20558;-55
2023/09/02 12:47:30;;;;;;;8.85;3.35;;;22.70;99.90;;;;;;5036333;28;20034;-54